Time;durP1;ratioP1;P1;durP2;ratioP2;P2;SDS_P1;SDS_P2;PMS_P1;PMS_P2;Temp;Humidity;BMP_temperature;BMP_pressure;BME280_temperature;BME280_humidity;BME280_pressure;Samples;Min_cycle;Max_cycle;Signal;HPM_P1;HPM_P2
2021/04/10 00:00:53;;;;;;;4.37;2.93;;;15.50;43.20;;;;;;5072521;28;20617;-51
2021/04/10 00:03:20;;;;;;;6.83;3.50;;;15.50;43.30;;;;;;5072865;28;21027;-50
2021/04/10 00:05:46;;;;;;;8.43;3.10;;;15.50;43.40;;;;;;5070483;28;20653;-50
2021/04/10 00:08:13;;;;;;;7.97;4.13;;;15.50;43.40;;;;;;5072086;28;20754;-50
2021/04/10 00:10:40;;;;;;;4.33;2.43;;;15.40;43.50;;;;;;5072514;28;21173;-50
2021/04/10 00:13:07;;;;;;;4.47;4.07;;;15.40;43.50;;;;;;5072655;28;20655;-50
2021/04/10 00:15:34;;;;;;;4.77;3.00;;;15.40;43.50;;;;;;5072423;28;20649;-51
2021/04/10 00:18:01;;;;;;;4.53;3.23;;;15.40;43.50;;;;;;5071914;28;21251;-50
2021/04/10 00:20:28;;;;;;;4.00;2.60;;;15.40;43.40;;;;;;5070792;28;20625;-51
2021/04/10 00:22:54;;;;;;;3.47;2.93;;;15.30;43.40;;;;;;5072550;28;21246;-50
2021/04/10 00:25:21;;;;;;;4.17;2.80;;;15.30;43.50;;;;;;5072449;28;20679;-50
2021/04/10 00:27:49;;;;;;;2.77;2.57;;;15.30;43.50;;;;;;5071697;28;20670;-50
2021/04/10 00:30:16;;;;;;;3.40;2.90;;;15.30;43.60;;;;;;5072066;28;20947;-50
2021/04/10 00:32:44;;;;;;;5.77;2.80;;;15.20;43.60;;;;;;5070118;28;20621;-50
2021/04/10 00:35:12;;;;;;;3.20;2.50;;;15.20;43.60;;;;;;5071819;28;20657;-51
2021/04/10 00:37:39;;;;;;;4.20;2.73;;;15.20;43.70;;;;;;5071514;28;20629;-50
2021/04/10 00:40:07;;;;;;;3.00;2.67;;;15.20;43.80;;;;;;5072408;28;20667;-51
2021/04/10 00:42:34;;;;;;;2.60;2.30;;;15.10;44.30;;;;;;5071574;28;20625;-50
2021/04/10 00:45:01;;;;;;;3.33;2.77;;;15.10;43.80;;;;;;5072071;28;20652;-50
2021/04/10 00:47:28;;;;;;;5.53;2.77;;;15.10;43.90;;;;;;5071270;28;20679;-50
2021/04/10 00:49:55;;;;;;;5.80;2.73;;;15.00;44.10;;;;;;5071813;28;20665;-51
2021/04/10 00:52:22;;;;;;;4.40;3.30;;;15.00;44.30;;;;;;5072183;28;20621;-51
2021/04/10 00:54:50;;;;;;;6.93;4.20;;;14.90;44.30;;;;;;5071667;28;20660;-50
2021/04/10 00:57:17;;;;;;;8.20;4.40;;;14.90;44.50;;;;;;5071395;28;21222;-50
2021/04/10 00:59:44;;;;;;;3.00;2.50;;;15.00;44.60;;;;;;5071677;28;20617;-50
2021/04/10 01:02:10;;;;;;;3.60;2.70;;;14.90;44.50;;;;;;5072056;28;21195;-51
2021/04/10 01:04:37;;;;;;;4.83;2.97;;;14.90;44.60;;;;;;5071882;28;20657;-51
2021/04/10 01:07:05;;;;;;;3.80;3.03;;;14.90;44.60;;;;;;5070954;28;20633;-50
2021/04/10 01:09:32;;;;;;;3.90;3.00;;;14.90;44.70;;;;;;5071072;28;20684;-51
2021/04/10 01:12:13;;;;;;;6.00;2.40;;;14.90;44.80;;;;;;5071576;28;20651;-51
2021/04/10 01:14:45;;;;;;;7.40;3.90;;;14.90;44.90;;;;;;5071580;28;20708;-51
2021/04/10 01:17:13;;;;;;;6.80;3.30;;;14.90;45.30;;;;;;5071051;28;20664;-50
2021/04/10 01:20:06;;;;;;;4.03;3.50;;;14.70;46.80;;;;;;5070272;28;20755;-50
2021/04/10 01:22:50;;;;;;;3.67;3.20;;;14.70;47.90;;;;;;5066249;28;20674;-51
2021/04/10 01:25:21;;;;;;;8.90;3.60;;;14.60;48.60;;;;;;5071241;28;20702;-50
2021/04/10 01:27:50;;;;;;;7.20;2.90;;;14.40;48.50;;;;;;5070994;28;21006;-50
2021/04/10 01:30:19;;;;;;;3.83;3.20;;;14.40;48.90;;;;;;5071129;28;20672;-50
2021/04/10 01:32:49;;;;;;;3.10;2.80;;;14.40;48.80;;;;;;5071256;28;20629;-51
2021/04/10 01:35:17;;;;;;;3.53;2.73;;;14.50;49.00;;;;;;5071308;28;20661;-50
2021/04/10 01:37:46;;;;;;;9.13;3.57;;;14.50;48.80;;;;;;5069323;28;20678;-50
2021/04/10 01:40:13;;;;;;;6.70;3.30;;;14.50;49.00;;;;;;5068824;28;20688;-50
2021/04/10 01:42:40;;;;;;;6.60;3.17;;;14.60;48.80;;;;;;5071390;28;21049;-50
2021/04/10 01:45:08;;;;;;;3.87;2.87;;;14.60;48.90;;;;;;5070827;28;20652;-50
2021/04/10 01:47:36;;;;;;;3.60;2.77;;;14.60;48.50;;;;;;5070349;28;20778;-50
2021/04/10 01:50:03;;;;;;;5.90;3.47;;;14.60;48.30;;;;;;5070226;28;20657;-50
2021/04/10 01:52:30;;;;;;;5.23;3.40;;;14.70;48.60;;;;;;5071501;28;20648;-51
2021/04/10 01:54:57;;;;;;;5.97;3.80;;;14.70;48.40;;;;;;5071087;28;20714;-50
2021/04/10 01:57:23;;;;;;;4.93;3.27;;;14.60;48.60;;;;;;5074594;28;20668;-51
2021/04/10 01:59:50;;;;;;;4.50;4.03;;;14.60;48.50;;;;;;5074943;28;20662;-50
2021/04/10 02:02:17;;;;;;;4.37;3.60;;;14.50;48.60;;;;;;5074569;28;20620;-51
2021/04/10 02:04:46;;;;;;;5.63;2.67;;;14.60;48.70;;;;;;5074971;28;21272;-51
2021/04/10 02:07:14;;;;;;;5.33;3.60;;;14.60;48.60;;;;;;5068571;28;20676;-51
2021/04/10 02:09:41;;;;;;;6.27;3.90;;;14.60;48.70;;;;;;5054914;28;21517;-51
2021/04/10 02:12:08;;;;;;;3.53;3.23;;;14.60;48.90;;;;;;5054781;28;20625;-51
2021/04/10 02:14:35;;;;;;;2.90;2.70;;;14.60;48.80;;;;;;5055198;28;20708;-51
2021/04/10 02:17:02;;;;;;;4.03;3.70;;;14.60;48.90;;;;;;5073536;28;20625;-51
2021/04/10 02:19:29;;;;;;;3.90;3.20;;;14.60;48.80;;;;;;5073348;28;20674;-51
2021/04/10 02:21:58;;;;;;;3.90;3.50;;;14.70;48.80;;;;;;5074691;28;20666;-51
2021/04/10 02:24:24;;;;;;;5.10;3.80;;;14.70;49.00;;;;;;5073230;28;20657;-51
2021/04/10 02:26:51;;;;;;;7.93;4.40;;;14.70;48.90;;;;;;5073826;28;20629;-51
2021/04/10 02:29:18;;;;;;;5.63;3.30;;;14.70;49.00;;;;;;5065585;28;20696;-51
2021/04/10 02:31:48;;;;;;;3.53;2.60;;;14.70;49.10;;;;;;5074446;28;20617;-51
2021/04/10 02:34:15;;;;;;;4.43;3.47;;;14.70;49.30;;;;;;5074010;28;20713;-51
2021/04/10 02:36:42;;;;;;;4.13;3.30;;;14.70;49.10;;;;;;5074085;28;20655;-51
2021/04/10 02:39:10;;;;;;;4.63;3.00;;;14.70;49.40;;;;;;5073954;28;20613;-51
2021/04/10 02:41:37;;;;;;;6.87;3.80;;;14.70;49.60;;;;;;5074336;28;20674;-51
2021/04/10 02:44:05;;;;;;;4.67;3.70;;;14.70;49.90;;;;;;5074093;28;20652;-51
2021/04/10 02:46:35;;;;;;;5.10;2.87;;;14.70;50.00;;;;;;5074224;28;20628;-51
2021/04/10 02:49:03;;;;;;;7.03;3.70;;;14.60;50.10;;;;;;5073881;28;20689;-50
2021/04/10 02:51:33;;;;;;;7.30;3.37;;;14.60;50.90;;;;;;5074160;28;20633;-51
2021/04/10 02:54:00;;;;;;;9.00;4.23;;;14.50;51.20;;;;;;5073697;28;21061;-51
2021/04/10 02:56:28;;;;;;;5.70;3.23;;;14.40;51.90;;;;;;5074123;28;20624;-52
2021/04/10 02:58:55;;;;;;;5.30;3.90;;;14.40;52.00;;;;;;5072513;28;20626;-52
2021/04/10 03:01:22;;;;;;;8.23;3.47;;;14.40;52.60;;;;;;5074372;28;20621;-52
2021/04/10 03:03:49;;;;;;;4.00;3.13;;;14.30;52.90;;;;;;5073462;28;20621;-51
2021/04/10 03:06:16;;;;;;;5.50;2.97;;;14.30;53.50;;;;;;5073562;28;20694;-51
2021/04/10 03:08:43;;;;;;;4.13;3.03;;;14.20;54.20;;;;;;5072119;28;20734;-52
2021/04/10 03:11:09;;;;;;;3.53;3.23;;;14.10;54.80;;;;;;5073537;28;20629;-52
2021/04/10 03:13:37;;;;;;;5.30;3.37;;;14.10;55.50;;;;;;5073618;28;20629;-52
2021/04/10 03:16:05;;;;;;;5.90;3.83;;;14.10;56.30;;;;;;5073914;28;21234;-51
2021/04/10 03:18:32;;;;;;;3.77;3.47;;;14.00;57.00;;;;;;5073297;28;20682;-52
2021/04/10 03:20:59;;;;;;;2.83;2.63;;;14.00;57.90;;;;;;5073733;28;20632;-51
2021/04/10 03:23:25;;;;;;;5.00;3.43;;;13.90;58.90;;;;;;5073356;28;21011;-52
2021/04/10 03:25:52;;;;;;;3.47;3.03;;;13.80;59.90;;;;;;5073395;28;20648;-51
2021/04/10 03:28:19;;;;;;;7.30;3.33;;;13.80;61.10;;;;;;5073459;28;20621;-52
2021/04/10 03:30:47;;;;;;;3.30;2.57;;;13.80;62.20;;;;;;5073591;28;21065;-51
2021/04/10 03:33:14;;;;;;;4.67;2.83;;;13.90;63.20;;;;;;5073574;28;21038;-51
2021/04/10 03:35:40;;;;;;;3.93;3.23;;;13.90;63.60;;;;;;5073372;28;20735;-52
2021/04/10 03:38:07;;;;;;;3.90;3.00;;;13.90;65.00;;;;;;5072525;28;21176;-50
2021/04/10 03:40:34;;;;;;;4.10;3.70;;;14.00;65.90;;;;;;5073331;28;20628;-51
2021/04/10 03:43:01;;;;;;;11.10;5.60;;;14.00;66.80;;;;;;5073108;28;20694;-50
2021/04/10 03:45:27;;;;;;;6.60;4.50;;;14.00;67.60;;;;;;5073091;28;20727;-50
2021/04/10 03:47:56;;;;;;;4.90;4.10;;;13.90;68.30;;;;;;5072941;28;20967;-50
2021/04/10 03:50:23;;;;;;;5.77;3.90;;;13.90;69.50;;;;;;5073047;28;20648;-50
2021/04/10 03:52:50;;;;;;;5.90;4.97;;;13.90;70.50;;;;;;5072804;28;21051;-50
2021/04/10 03:55:16;;;;;;;4.40;3.47;;;13.80;70.90;;;;;;5072215;28;20665;-50
2021/04/10 03:57:43;;;;;;;5.20;3.77;;;13.80;71.20;;;;;;5072673;28;20630;-50
2021/04/10 04:00:11;;;;;;;6.03;3.90;;;13.80;71.70;;;;;;5072702;28;20634;-50
2021/04/10 04:02:38;;;;;;;6.10;4.17;;;13.80;72.40;;;;;;5073004;28;20625;-50
2021/04/10 04:05:07;;;;;;;4.53;3.53;;;13.70;73.20;;;;;;5072626;28;20648;-50
2021/04/10 04:07:34;;;;;;;3.83;3.20;;;13.60;74.40;;;;;;5072158;28;21223;-50
2021/04/10 04:10:01;;;;;;;4.37;3.70;;;13.60;75.20;;;;;;5072789;28;20715;-50
2021/04/10 04:12:27;;;;;;;5.90;4.30;;;13.50;76.10;;;;;;5072386;28;21217;-50
2021/04/10 04:14:54;;;;;;;9.20;4.90;;;13.50;77.10;;;;;;5072152;28;20645;-50
2021/04/10 04:17:21;;;;;;;3.80;2.97;;;13.50;77.90;;;;;;5071656;28;20636;-50
2021/04/10 04:19:48;;;;;;;3.50;3.20;;;13.40;78.80;;;;;;5069964;28;20630;-49
2021/04/10 04:22:15;;;;;;;6.60;5.23;;;13.40;79.70;;;;;;5069012;28;20704;-50
2021/04/10 04:24:42;;;;;;;5.03;3.37;;;13.50;80.20;;;;;;5071840;28;20660;-50
2021/04/10 04:27:09;;;;;;;4.67;4.23;;;13.40;80.90;;;;;;5071984;28;20670;-50
2021/04/10 04:29:36;;;;;;;3.60;3.30;;;13.40;81.60;;;;;;5067174;28;20679;-50
2021/04/10 04:32:02;;;;;;;4.23;3.40;;;13.30;82.60;;;;;;5071936;28;20641;-50
2021/04/10 04:34:29;;;;;;;3.67;2.30;;;13.30;84.00;;;;;;5069110;28;20653;-50
2021/04/10 04:36:56;;;;;;;5.33;2.83;;;13.30;84.60;;;;;;5051920;28;20709;-50
2021/04/10 04:39:23;;;;;;;2.80;2.17;;;13.30;84.90;;;;;;5051791;28;20680;-50
2021/04/10 04:41:50;;;;;;;4.90;3.10;;;13.30;85.40;;;;;;5052136;28;20626;-50
2021/04/10 04:44:17;;;;;;;2.93;2.73;;;13.30;86.10;;;;;;5055210;28;20664;-50
2021/04/10 04:46:44;;;;;;;4.67;3.43;;;13.30;86.20;;;;;;5071794;28;20617;-50
2021/04/10 04:49:10;;;;;;;4.07;3.60;;;13.20;87.00;;;;;;5071334;28;20702;-50
2021/04/10 04:51:37;;;;;;;5.03;3.10;;;13.10;88.20;;;;;;5071686;28;20640;-50
2021/04/10 04:54:04;;;;;;;4.33;3.90;;;13.00;89.60;;;;;;5071614;28;21305;-50
2021/04/10 04:56:32;;;;;;;3.57;2.77;;;13.00;90.40;;;;;;5071703;28;20716;-50
2021/04/10 04:58:59;;;;;;;5.07;4.10;;;12.80;91.50;;;;;;5071187;28;20674;-50
2021/04/10 05:01:25;;;;;;;4.23;3.83;;;12.80;92.10;;;;;;5071229;28;20681;-50
2021/04/10 05:03:52;;;;;;;6.93;4.07;;;12.60;92.70;;;;;;5071348;28;21066;-51
2021/04/10 05:06:19;;;;;;;3.47;3.20;;;12.50;93.80;;;;;;5071510;28;20621;-50
2021/04/10 05:08:45;;;;;;;5.70;5.10;;;12.40;94.10;;;;;;5071186;28;20694;-51
2021/04/10 05:11:14;;;;;;;3.50;3.20;;;12.40;94.40;;;;;;5071523;28;20732;-51
2021/04/10 05:13:42;;;;;;;4.10;3.80;;;12.40;94.50;;;;;;5071160;28;20629;-51
2021/04/10 05:16:08;;;;;;;3.77;3.47;;;12.40;94.60;;;;;;5071488;28;20668;-50
2021/04/10 05:18:35;;;;;;;4.43;4.00;;;12.30;94.70;;;;;;5070318;28;20621;-50
2021/04/10 05:21:02;;;;;;;4.03;3.53;;;12.40;94.90;;;;;;5070502;28;20625;-50
2021/04/10 05:23:28;;;;;;;5.70;4.40;;;12.40;94.80;;;;;;5071177;28;20648;-50
2021/04/10 05:25:55;;;;;;;6.10;4.70;;;12.40;94.80;;;;;;5071009;28;20644;-50
2021/04/10 05:28:22;;;;;;;3.70;3.30;;;12.50;94.90;;;;;;5071045;28;20698;-51
2021/04/10 05:30:50;;;;;;;7.00;4.50;;;12.40;94.70;;;;;;5070986;28;20653;-50
2021/04/10 05:33:16;;;;;;;4.47;3.67;;;12.30;94.80;;;;;;5069966;28;20625;-50
2021/04/10 05:35:43;;;;;;;3.93;3.53;;;12.30;95.00;;;;;;5071284;28;21258;-50
2021/04/10 05:38:10;;;;;;;3.73;3.43;;;12.30;95.20;;;;;;5060402;28;20623;-50
2021/04/10 05:40:37;;;;;;;4.93;4.43;;;12.30;95.00;;;;;;5051517;28;20622;-50
2021/04/10 05:43:03;;;;;;;7.33;2.87;;;12.30;95.00;;;;;;5067876;28;20722;-51
2021/04/10 05:45:30;;;;;;;4.63;3.70;;;12.30;94.90;;;;;;5070838;28;20659;-50
2021/04/10 05:47:58;;;;;;;4.10;3.50;;;12.30;94.70;;;;;;5066136;28;21033;-50
2021/04/10 05:50:25;;;;;;;8.17;4.30;;;12.30;95.00;;;;;;5070497;28;20650;-50
2021/04/10 05:52:51;;;;;;;4.53;4.13;;;12.30;94.80;;;;;;5069267;28;20621;-51
2021/04/10 05:55:18;;;;;;;3.90;3.60;;;12.40;95.20;;;;;;5054041;28;20706;-50
2021/04/10 05:57:45;;;;;;;2.87;2.20;;;12.40;94.20;;;;;;5070330;28;20632;-50
2021/04/10 06:00:13;;;;;;;6.50;4.10;;;12.50;94.00;;;;;;5070840;28;20963;-50
2021/04/10 06:02:40;;;;;;;8.90;3.90;;;12.50;94.00;;;;;;5070986;28;20624;-50
2021/04/10 06:05:08;;;;;;;4.40;2.40;;;12.50;93.80;;;;;;5070630;28;20649;-50
2021/04/10 06:07:35;;;;;;;3.67;2.00;;;12.50;93.30;;;;;;5050785;28;20619;-50
2021/04/10 06:10:02;;;;;;;4.00;3.50;;;12.30;92.90;;;;;;5060167;28;20653;-50
2021/04/10 06:12:35;;;;;;;3.10;2.80;;;12.30;93.30;;;;;;5071518;28;20667;-51
2021/04/10 06:15:03;;;;;;;4.07;2.67;;;12.30;92.90;;;;;;5070927;28;20641;-50
2021/04/10 06:17:30;;;;;;;7.03;3.57;;;12.30;92.70;;;;;;5070858;28;20675;-51
2021/04/10 06:19:57;;;;;;;3.90;2.80;;;12.30;92.50;;;;;;5067818;28;20629;-51
2021/04/10 06:22:25;;;;;;;5.43;3.17;;;12.30;92.50;;;;;;5067538;28;20690;-52
2021/04/10 06:24:52;;;;;;;4.80;4.00;;;12.30;92.70;;;;;;5070947;28;20646;-51
2021/04/10 06:27:18;;;;;;;5.03;3.53;;;12.30;92.60;;;;;;5062215;28;21274;-52
2021/04/10 06:29:45;;;;;;;3.03;2.43;;;12.30;92.80;;;;;;5069253;28;20806;-51
2021/04/10 06:32:15;;;;;;;6.90;3.13;;;12.30;92.80;;;;;;5070293;28;20674;-52
2021/04/10 06:34:42;;;;;;;3.40;2.97;;;12.30;92.90;;;;;;5070542;28;20689;-51
2021/04/10 06:37:09;;;;;;;3.33;2.40;;;12.40;92.90;;;;;;5070219;28;20691;-52
2021/04/10 06:39:37;;;;;;;2.87;2.57;;;12.40;92.60;;;;;;5068356;28;20621;-51
2021/04/10 06:42:05;;;;;;;5.33;1.97;;;12.40;92.50;;;;;;5068592;28;20698;-50
2021/04/10 06:44:32;;;;;;;4.37;2.30;;;12.40;92.40;;;;;;5073640;28;20645;-50
2021/04/10 06:46:59;;;;;;;3.20;2.70;;;12.30;92.40;;;;;;5074168;28;21173;-50
2021/04/10 06:49:30;;;;;;;1.80;1.70;;;12.20;92.50;;;;;;5073655;28;20651;-51
2021/04/10 06:51:57;;;;;;;2.30;2.10;;;12.30;92.50;;;;;;5074074;28;20640;-51
2021/04/10 06:54:26;;;;;;;7.37;2.60;;;12.20;92.50;;;;;;5073793;28;21104;-51
2021/04/10 06:56:57;;;;;;;2.00;1.80;;;12.30;92.60;;;;;;5074376;28;20637;-54
2021/04/10 06:59:28;;;;;;;3.13;2.43;;;12.30;92.20;;;;;;5073841;28;21217;-50
2021/04/10 07:01:55;;;;;;;3.40;2.83;;;12.40;92.20;;;;;;5073658;28;20625;-52
2021/04/10 07:04:22;;;;;;;2.70;2.50;;;12.40;92.20;;;;;;5088543;28;20917;-52
2021/04/10 07:06:49;;;;;;;5.20;3.50;;;12.40;92.30;;;;;;5073991;28;20633;-51
2021/04/10 07:09:15;;;;;;;2.87;2.23;;;12.40;92.00;;;;;;5073557;28;20626;-51
2021/04/10 07:11:42;;;;;;;2.80;2.47;;;12.50;92.10;;;;;;5073394;28;20668;-51
2021/04/10 07:14:10;;;;;;;3.90;3.03;;;12.60;91.80;;;;;;5073556;28;20707;-50
2021/04/10 07:16:40;;;;;;;2.33;2.10;;;12.50;91.60;;;;;;5073347;28;20625;-51
2021/04/10 07:19:13;;;;;;;3.20;2.83;;;12.50;91.90;;;;;;5073548;28;20628;-51
2021/04/10 07:21:39;;;;;;;2.93;2.13;;;12.60;91.60;;;;;;5073201;28;20663;-51
2021/04/10 07:24:07;;;;;;;3.27;2.97;;;12.60;91.40;;;;;;5072502;28;20720;-52
2021/04/10 07:26:46;;;;;;;3.87;2.47;;;12.60;91.40;;;;;;5073484;28;20684;-50
2021/04/10 07:29:29;;;;;;;3.87;2.43;;;12.60;91.10;;;;;;5073490;28;20630;-51
2021/04/10 07:31:56;;;;;;;5.33;2.40;;;12.60;91.00;;;;;;5073184;28;21173;-52
2021/04/10 07:34:26;;;;;;;2.77;2.57;;;12.60;90.90;;;;;;5073395;28;21069;-52
2021/04/10 07:37:01;;;;;;;2.40;2.20;;;12.60;90.80;;;;;;5071076;28;20633;-52
2021/04/10 07:39:28;;;;;;;2.37;2.17;;;12.70;90.70;;;;;;5073340;28;20728;-54
2021/04/10 07:42:00;;;;;;;4.60;2.13;;;12.70;90.50;;;;;;5072828;28;20699;-52
2021/04/10 07:44:37;;;;;;;4.50;2.47;;;12.80;90.40;;;;;;5070916;28;20729;-51
2021/04/10 07:47:04;;;;;;;3.80;2.27;;;12.90;90.50;;;;;;5073175;28;21023;-52
2021/04/10 07:49:32;;;;;;;3.27;1.90;;;12.90;90.10;;;;;;5069624;28;20677;-52
2021/04/10 07:52:02;;;;;;;3.37;1.83;;;12.90;89.40;;;;;;5070064;28;20625;-51
2021/04/10 07:54:29;;;;;;;9.40;2.80;;;12.80;89.20;;;;;;5063923;28;20718;-52
2021/04/10 07:57:00;;;;;;;4.17;2.20;;;12.90;89.10;;;;;;5066827;28;21246;-52
2021/04/10 07:59:27;;;;;;;3.00;2.23;;;12.90;88.60;;;;;;5069584;28;20621;-51
2021/04/10 08:02:07;;;;;;;3.83;2.53;;;12.80;88.00;;;;;;5071632;28;20970;-51
2021/04/10 08:05:14;;;;;;;2.77;2.57;;;12.80;88.10;;;;;;5071199;28;20662;-53
2021/04/10 08:08:07;;;;;;;5.53;2.37;;;12.80;87.90;;;;;;5067526;28;20668;-52
2021/04/10 08:10:34;;;;;;;4.50;2.10;;;12.50;88.10;;;;;;5070419;28;20651;-53
2021/04/10 08:13:07;;;;;;;4.20;2.60;;;12.40;89.70;;;;;;5080358;28;20636;-51
2021/04/10 08:15:34;;;;;;;1.97;1.87;;;12.20;90.40;;;;;;5092251;28;20720;-52
2021/04/10 08:18:02;;;;;;;2.80;2.37;;;12.10;90.60;;;;;;5087423;28;20675;-53
2021/04/10 08:20:30;;;;;;;5.37;2.00;;;12.00;91.00;;;;;;5066950;28;20634;-53
2021/04/10 08:23:17;;;;;;;2.20;1.93;;;12.00;91.20;;;;;;5070755;28;20641;-52
2021/04/10 08:25:44;;;;;;;5.00;2.80;;;12.00;91.20;;;;;;5067665;28;21187;-52
2021/04/10 08:28:11;;;;;;;3.73;2.13;;;11.90;91.10;;;;;;5071549;28;20624;-52
2021/04/10 08:30:38;;;;;;;3.33;1.90;;;12.00;91.40;;;;;;5071604;28;20995;-52
2021/04/10 08:33:06;;;;;;;2.50;2.20;;;11.90;91.20;;;;;;5071651;28;20660;-51
2021/04/10 08:35:33;;;;;;;5.17;1.90;;;11.90;91.40;;;;;;5065953;28;21020;-51
2021/04/10 08:38:00;;;;;;;2.90;2.30;;;12.00;91.30;;;;;;5070729;28;21004;-50
2021/04/10 08:40:27;;;;;;;3.00;2.57;;;12.00;91.10;;;;;;5069411;28;20686;-51
2021/04/10 08:42:56;;;;;;;3.70;2.07;;;12.00;91.10;;;;;;5066483;28;20621;-51
2021/04/10 08:45:24;;;;;;;10.10;2.33;;;12.10;90.90;;;;;;5067230;28;20760;-51
2021/04/10 08:47:51;;;;;;;2.10;2.00;;;12.10;91.00;;;;;;5067801;28;20634;-51
2021/04/10 08:50:18;;;;;;;6.37;2.30;;;12.20;91.00;;;;;;5066936;28;20693;-51
2021/04/10 08:52:48;;;;;;;3.60;2.77;;;12.20;91.10;;;;;;5066612;28;20687;-52
2021/04/10 08:55:14;;;;;;;4.07;1.93;;;12.30;91.20;;;;;;5067004;28;20672;-52
2021/04/10 08:57:42;;;;;;;2.43;2.17;;;12.30;91.30;;;;;;5068057;28;20632;-52
2021/04/10 09:00:19;;;;;;;2.70;2.50;;;12.40;91.30;;;;;;5070898;28;20758;-52
2021/04/10 09:02:50;;;;;;;3.73;2.47;;;12.50;91.30;;;;;;5071670;28;21165;-51
2021/04/10 09:05:18;;;;;;;3.20;2.60;;;12.60;91.30;;;;;;5070505;28;20664;-52
2021/04/10 09:08:06;;;;;;;2.60;2.40;;;12.60;91.40;;;;;;5071306;28;21018;-53
2021/04/10 09:10:50;;;;;;;3.00;1.97;;;12.70;91.30;;;;;;5071564;28;20661;-52
2021/04/10 09:13:44;;;;;;;3.50;1.50;;;12.80;90.80;;;;;;5071189;28;20617;-51
2021/04/10 09:16:24;;;;;;;6.80;2.47;;;12.70;90.00;;;;;;5061766;28;20625;-52
2021/04/10 09:18:52;;;;;;;2.47;1.50;;;12.70;90.30;;;;;;5068310;28;20625;-52
2021/04/10 09:21:23;;;;;;;2.90;2.20;;;12.60;89.60;;;;;;5065809;28;20665;-51
2021/04/10 09:23:50;;;;;;;2.33;1.80;;;12.60;90.10;;;;;;5067301;28;20610;-52
2021/04/10 09:26:22;;;;;;;2.77;1.47;;;12.60;89.10;;;;;;5064707;28;20621;-55
2021/04/10 09:29:13;;;;;;;2.53;1.93;;;12.60;89.00;;;;;;5071646;28;20622;-51
2021/04/10 09:31:41;;;;;;;3.13;1.97;;;12.60;89.20;;;;;;5068553;28;20712;-53
2021/04/10 09:35:02;;;;;;;2.73;2.07;;;12.60;90.30;;;;;;5069222;28;20652;-52
2021/04/10 09:37:59;;;;;;;4.40;2.10;;;12.60;89.60;;;;;;5067734;28;21244;-52
2021/04/10 09:40:48;;;;;;;3.80;2.40;;;12.70;90.20;;;;;;5065875;28;20621;-52
2021/04/10 09:43:23;;;;;;;2.93;2.33;;;12.70;90.10;;;;;;5064411;28;20690;-53
2021/04/10 09:45:50;;;;;;;5.80;2.70;;;12.80;90.50;;;;;;5071609;28;20707;-51
2021/04/10 09:48:28;;;;;;;2.43;2.13;;;12.90;90.00;;;;;;5070263;28;20625;-52
2021/04/10 09:51:13;;;;;;;4.20;2.77;;;13.00;89.30;;;;;;5059729;28;20645;-50
2021/04/10 09:53:41;;;;;;;4.00;2.60;;;13.00;89.00;;;;;;5059296;28;20629;-52
2021/04/10 09:56:10;;;;;;;2.80;2.10;;;13.10;89.10;;;;;;5072026;28;20651;-52
2021/04/10 09:58:51;;;;;;;2.63;2.43;;;13.00;89.00;;;;;;5067489;28;21054;-51
2021/04/10 10:01:22;;;;;;;3.50;3.10;;;13.00;89.00;;;;;;5066185;28;20944;-52
2021/04/10 10:03:50;;;;;;;4.17;2.73;;;12.90;89.30;;;;;;5064988;28;20679;-50
2021/04/10 10:06:19;;;;;;;2.97;2.40;;;12.90;89.90;;;;;;5068892;28;20653;-53
2021/04/10 10:08:47;;;;;;;2.87;2.40;;;12.90;90.20;;;;;;5068693;28;20625;-52
2021/04/10 10:11:13;;;;;;;3.33;3.00;;;12.90;90.60;;;;;;5066515;28;20654;-52
2021/04/10 10:13:41;;;;;;;3.23;2.87;;;12.90;90.80;;;;;;5061145;28;20636;-52
2021/04/10 10:16:08;;;;;;;4.80;3.00;;;12.90;90.50;;;;;;5062590;28;21145;-51
2021/04/10 10:18:36;;;;;;;7.30;3.23;;;12.90;90.70;;;;;;5070248;28;20637;-52
2021/04/10 10:21:05;;;;;;;3.30;3.00;;;12.90;90.70;;;;;;5069799;28;20682;-51
2021/04/10 10:23:36;;;;;;;6.50;3.30;;;13.00;91.10;;;;;;5072136;28;21180;-54
2021/04/10 10:26:08;;;;;;;4.30;3.17;;;13.00;91.20;;;;;;5072901;28;20679;-53
2021/04/10 10:28:35;;;;;;;4.20;3.43;;;13.10;91.50;;;;;;5072965;28;20682;-52
2021/04/10 10:31:09;;;;;;;4.10;3.30;;;13.20;91.80;;;;;;5073080;28;21066;-52
2021/04/10 10:33:37;;;;;;;4.00;2.80;;;13.20;91.70;;;;;;5068295;28;20706;-51
2021/04/10 10:36:04;;;;;;;4.33;2.93;;;13.40;91.80;;;;;;5072751;28;21101;-50
2021/04/10 10:38:35;;;;;;;3.87;2.97;;;13.40;91.40;;;;;;5071723;28;20628;-52
2021/04/10 10:41:02;;;;;;;4.20;3.07;;;13.40;91.20;;;;;;5071771;28;20633;-51
2021/04/10 10:43:30;;;;;;;6.70;3.30;;;13.40;91.20;;;;;;5068300;28;20636;-51
2021/04/10 10:45:58;;;;;;;4.23;2.70;;;13.40;90.90;;;;;;5071874;28;20649;-52
2021/04/10 10:48:27;;;;;;;5.53;3.53;;;13.40;91.00;;;;;;5071532;28;21010;-53
2021/04/10 10:50:56;;;;;;;6.73;4.30;;;13.50;91.20;;;;;;5069955;28;21287;-51
2021/04/10 10:53:24;;;;;;;9.20;3.87;;;13.40;91.20;;;;;;5071158;28;20629;-52
2021/04/10 10:56:05;;;;;;;4.93;3.30;;;13.40;91.20;;;;;;5071110;28;20718;-53
2021/04/10 10:58:37;;;;;;;4.40;2.93;;;13.40;91.10;;;;;;5071412;28;20674;-52
2021/04/10 11:01:11;;;;;;;7.27;3.70;;;13.40;91.50;;;;;;5067380;28;20733;-52
2021/04/10 11:03:39;;;;;;;4.67;4.13;;;13.30;91.50;;;;;;5072508;28;20696;-52
2021/04/10 11:06:06;;;;;;;5.93;3.73;;;13.30;91.60;;;;;;5069910;28;20625;-53
2021/04/10 11:08:33;;;;;;;7.43;4.43;;;13.30;91.90;;;;;;5073261;28;20710;-53
2021/04/10 11:11:00;;;;;;;5.37;3.60;;;13.20;91.80;;;;;;5073027;28;20649;-52
2021/04/10 11:13:27;;;;;;;5.43;3.33;;;13.30;91.80;;;;;;5075100;28;20954;-52
2021/04/10 11:15:54;;;;;;;6.63;3.93;;;13.20;91.60;;;;;;5073770;28;20705;-51
2021/04/10 11:18:28;;;;;;;3.93;3.53;;;13.30;91.70;;;;;;5073137;28;20649;-51
2021/04/10 11:21:17;;;;;;;7.77;3.57;;;13.20;91.30;;;;;;5073300;28;20682;-51
2021/04/10 11:24:11;;;;;;;3.97;3.43;;;13.20;91.40;;;;;;5072934;28;21180;-51
2021/04/10 11:26:44;;;;;;;3.63;2.53;;;13.20;91.00;;;;;;5075005;28;20674;-52
2021/04/10 11:29:19;;;;;;;3.10;2.50;;;13.20;91.10;;;;;;5073522;28;20631;-51
2021/04/10 11:32:09;;;;;;;6.03;3.30;;;13.30;90.90;;;;;;5073357;28;20694;-52
2021/04/10 11:34:37;;;;;;;7.07;3.30;;;13.20;91.00;;;;;;5073218;28;20656;-53
2021/04/10 11:37:04;;;;;;;4.83;3.80;;;13.30;91.10;;;;;;5074348;28;21169;-51
2021/04/10 11:39:31;;;;;;;3.47;2.83;;;13.30;91.20;;;;;;5072869;28;20629;-51
2021/04/10 11:41:58;;;;;;;7.87;3.53;;;13.30;90.50;;;;;;5073339;28;20629;-52
2021/04/10 11:44:25;;;;;;;5.60;2.77;;;13.40;90.60;;;;;;5073510;28;20663;-52
2021/04/10 11:47:00;;;;;;;3.20;2.67;;;13.40;90.40;;;;;;5073500;28;20767;-53
2021/04/10 11:49:27;;;;;;;3.93;3.07;;;13.40;90.60;;;;;;5068439;28;20670;-53
2021/04/10 11:51:54;;;;;;;2.90;2.70;;;13.50;90.90;;;;;;5073617;28;20652;-53
2021/04/10 11:54:31;;;;;;;5.80;3.07;;;13.50;90.50;;;;;;5073359;28;20668;-52
2021/04/10 11:56:58;;;;;;;3.30;2.77;;;13.50;91.00;;;;;;5074579;28;20621;-53
2021/04/10 11:59:36;;;;;;;4.07;3.00;;;13.60;91.00;;;;;;5071331;28;20633;-53
2021/04/10 12:02:04;;;;;;;5.00;2.83;;;13.60;91.10;;;;;;5073022;28;20728;-52
2021/04/10 12:04:34;;;;;;;2.80;2.40;;;13.60;90.00;;;;;;5073235;28;21242;-52
2021/04/10 12:07:04;;;;;;;5.03;2.67;;;13.60;89.40;;;;;;5072685;28;20636;-52
2021/04/10 12:09:34;;;;;;;3.13;2.70;;;13.60;89.80;;;;;;5072080;28;20685;-51
2021/04/10 12:12:01;;;;;;;4.00;2.63;;;13.60;89.60;;;;;;5070341;28;20661;-52
2021/04/10 12:14:31;;;;;;;4.50;2.30;;;13.60;89.30;;;;;;5072570;28;20903;-52
2021/04/10 12:16:58;;;;;;;5.60;3.03;;;13.60;89.50;;;;;;5072653;28;20629;-53
2021/04/10 12:19:25;;;;;;;4.63;2.70;;;13.60;87.90;;;;;;5074449;28;20617;-52
2021/04/10 12:21:52;;;;;;;11.43;3.10;;;13.60;87.90;;;;;;5072502;28;20926;-51
2021/04/10 12:24:20;;;;;;;5.07;2.90;;;13.70;88.30;;;;;;5072472;28;20685;-52
2021/04/10 12:26:47;;;;;;;3.30;2.43;;;13.70;88.30;;;;;;5072377;28;20994;-52
2021/04/10 12:29:13;;;;;;;6.03;3.27;;;13.80;87.50;;;;;;5071562;28;21262;-51
2021/04/10 12:31:40;;;;;;;4.27;2.53;;;13.80;87.80;;;;;;5071843;28;20645;-52
2021/04/10 12:34:07;;;;;;;8.90;3.30;;;13.80;87.40;;;;;;5072014;28;20665;-54
2021/04/10 12:36:35;;;;;;;5.30;2.90;;;13.90;87.20;;;;;;5070592;28;20671;-51
2021/04/10 12:39:02;;;;;;;2.57;2.37;;;13.90;86.50;;;;;;5070411;28;21166;-51
2021/04/10 12:41:30;;;;;;;3.10;2.80;;;14.00;86.60;;;;;;5071671;28;21181;-51
2021/04/10 12:43:57;;;;;;;5.90;2.43;;;14.00;85.20;;;;;;5071360;28;21303;-52
2021/04/10 12:46:24;;;;;;;3.40;2.97;;;14.10;84.70;;;;;;5071722;28;21181;-52
2021/04/10 12:48:50;;;;;;;5.27;2.90;;;14.20;84.10;;;;;;5067343;28;21119;-51
2021/04/10 12:51:17;;;;;;;2.67;2.47;;;14.30;84.20;;;;;;5070164;28;20660;-52
2021/04/10 12:53:48;;;;;;;5.10;3.07;;;14.40;82.90;;;;;;5071539;28;21033;-54
2021/04/10 12:56:20;;;;;;;4.13;3.20;;;14.50;82.10;;;;;;5071710;28;20622;-52